Time,TemperatureF,DewpointF,PressureIn,WindDirection,WindDirectionDegrees,WindSpeedMPH,WindSpeedGustMPH,Humidity,HourlyPrecipIn,Conditions,Clouds,dailyrainin,SoftwareType,DateUTC
2013-01-02 00:02:00,10.0,2.0,-100.00,East,80,2.0,4.0,70,0.00,,,-99.99,,2013-01-02 07:02:00,
2013-01-02 00:12:00,10.0,2.0,-100.00,SE,145,0.0,2.0,70,0.00,,,-99.99,,2013-01-02 07:12:00,
2013-01-02 00:22:00,10.0,2.0,-100.00,SE,145,0.0,2.0,70,0.00,,,-99.99,,2013-01-02 07:22:00,
2013-01-02 00:32:00,10.0,2.0,-100.00,SSW,200,0.0,0.0,70,0.00,,,-99.99,,2013-01-02 07:32:00,
2013-01-02 00:42:00,10.0,2.0,-100.00,WNW,285,0.0,0.0,70,0.00,,,-99.99,,2013-01-02 07:42:00,
2013-01-02 00:52:00,10.0,2.0,-100.00,WNW,285,0.0,0.0,70,0.00,,,-99.99,,2013-01-02 07:52:00,
2013-01-02 01:02:00,10.0,3.0,-100.00,ESE,105,0.0,0.0,71,0.00,,,-99.99,,2013-01-02 08:02:00,
2013-01-02 01:11:00,10.0,3.0,-100.00,NNW,340,0.0,4.0,71,0.00,,,-99.99,,2013-01-02 08:11:00,
2013-01-02 01:21:00,10.0,2.0,-100.00,SSW,210,0.0,2.0,71,0.00,,,-99.99,,2013-01-02 08:21:00,
2013-01-02 01:32:00,9.0,1.0,-100.00,East,85,0.0,3.0,71,0.00,,,-99.99,,2013-01-02 08:32:00,
2013-01-02 01:42:00,8.0,1.0,-100.00,SW,225,0.0,1.0,71,0.00,,,-99.99,,2013-01-02 08:42:00,
2013-01-02 01:52:00,8.0,1.0,-100.00,North,5,0.0,2.0,72,0.00,,,-99.99,,2013-01-02 08:52:00,
2013-01-02 02:02:00,8.0,1.0,-100.00,WSW,245,0.0,0.0,72,0.00,,,-99.99,,2013-01-02 09:02:00,
2013-01-02 02:12:00,8.0,1.0,-100.00,SE,145,0.0,1.0,72,0.00,,,-99.99,,2013-01-02 09:12:00,
2013-01-02 02:22:00,9.0,2.0,-100.00,East,100,0.0,0.0,73,0.00,,,-99.99,,2013-01-02 09:22:00,
2013-01-02 02:32:00,9.0,2.0,-100.00,NE,55,1.0,2.0,73,0.00,,,-99.99,,2013-01-02 09:32:00,
2013-01-02 02:42:00,9.0,2.0,-100.00,ESE,105,0.0,2.0,74,0.00,,,-99.99,,2013-01-02 09:42:00,
2013-01-02 02:52:00,9.0,3.0,-100.00,SE,125,0.0,0.0,74,0.00,,,-99.99,,2013-01-02 09:52:00,
2013-01-02 03:02:00,9.0,3.0,-100.00,SSE,155,0.0,0.0,74,0.00,,,-99.99,,2013-01-02 10:02:00,
2013-01-02 03:12:00,9.0,3.0,-100.00,SSE,155,0.0,0.0,75,0.00,,,-99.99,,2013-01-02 10:12:00,
2013-01-02 03:22:00,9.0,3.0,-100.00,SW,230,0.0,0.0,75,0.00,,,-99.99,,2013-01-02 10:22:00,
2013-01-02 03:32:00,9.0,3.0,-100.00,East,95,0.0,0.0,75,0.00,,,-99.99,,2013-01-02 10:32:00,
2013-01-02 03:42:00,9.0,3.0,-100.00,ESE,115,4.0,6.0,76,0.00,,,-99.99,,2013-01-02 10:42:00,
2013-01-02 03:52:00,10.0,4.0,-100.00,SE,125,4.0,7.0,76,0.00,,,-99.99,,2013-01-02 10:52:00,
2013-01-02 04:02:00,10.0,4.0,-100.00,SE,125,4.0,7.0,76,0.00,,,-99.99,,2013-01-02 11:02:00,
2013-01-02 04:11:00,9.0,3.0,-100.00,ENE,65,0.0,6.0,76,0.00,,,-99.99,,2013-01-02 11:11:00,
2013-01-02 04:22:00,9.0,3.0,-100.00,ESE,105,2.0,4.0,76,0.00,,,-99.99,,2013-01-02 11:22:00,
2013-01-02 04:32:00,9.0,3.0,-100.00,ESE,115,4.0,6.0,77,0.00,,,-99.99,,2013-01-02 11:32:00,
2013-01-02 04:42:00,8.0,3.0,-100.00,SE,145,1.0,6.0,77,0.00,,,-99.99,,2013-01-02 11:42:00,
2013-01-02 04:52:00,8.0,2.0,-100.00,SE,140,4.0,6.0,77,0.00,,,-99.99,,2013-01-02 11:52:00,
2013-01-02 05:02:00,7.0,2.0,-100.00,NE,55,1.0,6.0,77,0.00,,,-99.99,,2013-01-02 12:02:00,
2013-01-02 05:12:00,6.0,0.0,-100.00,SSE,155,0.0,1.0,77,0.00,,,-99.99,,2013-01-02 12:12:00,
2013-01-02 05:22:00,6.0,0.0,-100.00,SE,125,0.0,0.0,77,0.00,,,-99.99,,2013-01-02 12:22:00,
2013-01-02 05:32:00,5.0,-1.0,-100.00,South,185,1.0,3.0,77,0.00,,,-99.99,,2013-01-02 12:32:00,
2013-01-02 05:42:00,5.0,0.0,-100.00,SE,140,0.0,2.0,77,0.00,,,-99.99,,2013-01-02 12:42:00,
2013-01-02 05:52:00,6.0,1.0,-100.00,ESE,120,4.0,6.0,78,0.00,,,-99.99,,2013-01-02 12:52:00,
2013-01-02 06:02:00,7.0,2.0,-100.00,SSE,150,1.0,6.0,78,0.00,,,-99.99,,2013-01-02 13:02:00,
2013-01-02 06:12:00,7.0,2.0,-100.00,East,100,1.0,5.0,78,0.00,,,-99.99,,2013-01-02 13:12:00,
2013-01-02 06:22:00,8.0,2.0,-100.00,SE,140,1.0,5.0,78,0.00,,,-99.99,,2013-01-02 13:22:00,
2013-01-02 06:32:00,8.0,2.0,-100.00,SE,125,2.0,7.0,78,0.00,,,-99.99,,2013-01-02 13:32:00,
2013-01-02 06:42:00,8.0,3.0,-100.00,SE,135,6.0,8.0,78,0.00,,,-99.99,,2013-01-02 13:42:00,
2013-01-02 06:52:00,8.0,3.0,-100.00,SE,135,3.0,8.0,78,0.00,,,-99.99,,2013-01-02 13:52:00,
2013-01-02 07:02:00,8.0,3.0,-100.00,SE,130,4.0,8.0,78,0.00,,,-99.99,,2013-01-02 14:02:00,
2013-01-02 07:12:00,8.0,3.0,-100.00,ESE,105,5.0,10.0,78,0.00,,,-99.99,,2013-01-02 14:12:00,
2013-01-02 07:22:00,8.0,3.0,-100.00,WSW,250,0.0,7.0,78,0.00,,,-99.99,,2013-01-02 14:22:00,
2013-01-02 07:32:00,7.0,2.0,-100.00,ESE,115,2.0,4.0,78,0.00,,,-99.99,,2013-01-02 14:32:00,
2013-01-02 07:42:00,6.0,1.0,-100.00,ESE,115,0.0,4.0,78,0.00,,,-99.99,,2013-01-02 14:42:00,
2013-01-02 07:53:00,5.0,0.0,-100.00,East,90,2.0,4.0,78,0.00,,,-99.99,,2013-01-02 14:53:00,
2013-01-02 08:02:00,5.0,0.0,-100.00,North,10,0.0,4.0,78,0.00,,,-99.99,,2013-01-02 15:02:00,
2013-01-02 08:12:00,5.0,0.0,-100.00,SSW,210,1.0,4.0,78,0.00,,,-99.99,,2013-01-02 15:12:00,
2013-01-02 08:22:00,8.0,2.0,-100.00,SE,140,7.0,11.0,78,0.00,,,-99.99,,2013-01-02 15:22:00,
2013-01-02 08:33:00,8.0,3.0,-100.00,SE,135,3.0,10.0,78,0.00,,,-99.99,,2013-01-02 15:33:00,
2013-01-02 08:42:00,9.0,3.0,-100.00,SSE,150,0.0,4.0,78,0.00,,,-99.99,,2013-01-02 15:42:00,
2013-01-02 08:52:00,9.0,3.0,-100.00,NNE,15,0.0,3.0,78,0.00,,,-99.99,,2013-01-02 15:52:00,
2013-01-02 09:02:00,11.0,6.0,-100.00,SSW,210,0.0,0.0,78,0.00,,,-99.99,,2013-01-02 16:02:00,
2013-01-02 09:11:00,13.0,8.0,-100.00,SE,130,4.0,8.0,78,0.00,,,-99.99,,2013-01-02 16:11:00,
2013-01-02 09:22:00,13.0,7.0,-100.00,East,80,4.0,9.0,76,0.00,,,-99.99,,2013-01-02 16:22:00,
2013-01-02 09:32:00,14.0,8.0,-100.00,West,260,0.0,2.0,75,0.00,,,-99.99,,2013-01-02 16:32:00,
2013-01-02 09:42:00,16.0,9.0,-100.00,WSW,255,1.0,3.0,73,0.00,,,-99.99,,2013-01-02 16:42:00,
2013-01-02 09:53:00,18.0,10.0,-100.00,WSW,250,0.0,2.0,71,0.00,,,-99.99,,2013-01-02 16:53:00,
2013-01-02 10:02:00,16.0,8.0,-100.00,ENE,65,0.0,2.0,67,0.00,,,-99.99,,2013-01-02 17:02:00,
2013-01-02 10:12:00,19.0,9.0,-100.00,SSW,205,1.0,2.0,65,0.00,,,-99.99,,2013-01-02 17:12:00,
2013-01-02 10:22:00,18.0,8.0,-100.00,ENE,75,0.0,2.0,62,0.00,,,-99.99,,2013-01-02 17:22:00,
2013-01-02 10:33:00,19.0,8.0,-100.00,East,85,1.0,2.0,60,0.00,,,-99.99,,2013-01-02 17:33:00,
2013-01-02 10:42:00,22.0,10.0,-100.00,SW,225,1.0,3.0,58,0.00,,,-99.99,,2013-01-02 17:42:00,
2013-01-02 10:53:00,22.0,10.0,-100.00,SW,225,1.0,3.0,58,0.00,,,-99.99,,2013-01-02 17:53:00,
2013-01-02 11:02:00,25.0,10.0,-100.00,WSW,250,0.0,1.0,53,0.00,,,-99.99,,2013-01-02 18:02:00,
2013-01-02 11:12:00,23.0,7.0,-100.00,SW,235,0.0,0.0,50,0.00,,,-99.99,,2013-01-02 18:12:00,
2013-01-02 11:22:00,23.0,6.0,-100.00,North,0,0.0,0.0,48,0.00,,,-99.99,,2013-01-02 18:22:00,
2013-01-02 11:33:00,24.0,8.0,-100.00,NNE,25,0.0,2.0,48,0.00,,,-99.99,,2013-01-02 18:33:00,
2013-01-02 11:42:00,26.0,9.0,-100.00,SW,230,1.0,3.0,46,0.00,,,-99.99,,2013-01-02 18:42:00,
2013-01-02 11:52:00,26.0,8.0,-100.00,SW,215,1.0,2.0,45,0.00,,,-99.99,,2013-01-02 18:52:00,
2013-01-02 12:02:00,27.0,8.0,-100.00,NNW,335,0.0,2.0,44,0.00,,,-99.99,,2013-01-02 19:02:00,
2013-01-02 12:12:00,27.0,8.0,-100.00,NW,305,1.0,4.0,43,0.00,,,-99.99,,2013-01-02 19:12:00,
2013-01-02 12:22:00,26.0,7.0,-100.00,West,275,0.0,3.0,43,0.00,,,-99.99,,2013-01-02 19:22:00,
2013-01-02 12:32:00,26.0,7.0,-100.00,West,275,2.0,4.0,43,0.00,,,-99.99,,2013-01-02 19:32:00,
2013-01-02 12:42:00,26.0,7.0,-100.00,West,275,2.0,4.0,43,0.00,,,-99.99,,2013-01-02 19:42:00,
2013-01-02 12:52:00,28.0,8.0,-100.00,WNW,295,1.0,3.0,42,0.00,,,-99.99,,2013-01-02 19:52:00,
2013-01-02 13:02:00,29.0,9.0,-100.00,SW,220,0.0,0.0,41,0.00,,,-99.99,,2013-01-02 20:02:00,
2013-01-02 13:12:00,29.0,8.0,-100.00,WSW,255,1.0,6.0,40,0.00,,,-99.99,,2013-01-02 20:12:00,
2013-01-02 13:22:00,30.0,9.0,-100.00,West,265,4.0,6.0,39,0.00,,,-99.99,,2013-01-02 20:22:00,
2013-01-02 13:32:00,29.0,7.0,-100.00,West,265,4.0,7.0,39,0.00,,,-99.99,,2013-01-02 20:32:00,
2013-01-02 13:42:00,28.0,7.0,-100.00,WSW,255,2.0,6.0,39,0.00,,,-99.99,,2013-01-02 20:42:00,
2013-01-02 13:53:00,29.0,7.0,-100.00,West,260,3.0,8.0,39,0.00,,,-99.99,,2013-01-02 20:53:00,
2013-01-02 14:02:00,29.0,7.0,-100.00,West,260,3.0,10.0,39,0.00,,,-99.99,,2013-01-02 21:02:00,
2013-01-02 14:12:00,29.0,7.0,-100.00,West,265,1.0,7.0,39,0.00,,,-99.99,,2013-01-02 21:12:00,
2013-01-02 14:22:00,30.0,8.0,-100.00,WNW,295,2.0,8.0,38,0.00,,,-99.99,,2013-01-02 21:22:00,
2013-01-02 14:32:00,30.0,8.0,-100.00,West,265,4.0,7.0,38,0.00,,,-99.99,,2013-01-02 21:32:00,
2013-01-02 14:42:00,30.0,8.0,-100.00,West,265,4.0,7.0,38,0.00,,,-99.99,,2013-01-02 21:42:00,
2013-01-02 14:52:00,31.0,8.0,-100.00,WSW,255,1.0,4.0,37,0.00,,,-99.99,,2013-01-02 21:52:00,
2013-01-02 15:02:00,30.0,8.0,-100.00,WSW,255,2.0,5.0,37,0.00,,,-99.99,,2013-01-02 22:02:00,
2013-01-02 15:12:00,29.0,6.0,-100.00,SW,235,1.0,4.0,37,0.00,,,-99.99,,2013-01-02 22:12:00,
2013-01-02 15:22:00,29.0,6.0,-100.00,West,260,2.0,4.0,37,0.00,,,-99.99,,2013-01-02 22:22:00,
2013-01-02 15:32:00,28.0,6.0,-100.00,WSW,240,1.0,4.0,37,0.00,,,-99.99,,2013-01-02 22:32:00,
2013-01-02 15:42:00,28.0,6.0,-100.00,WSW,245,1.0,3.0,38,0.00,,,-99.99,,2013-01-02 22:42:00,
2013-01-02 15:52:00,26.0,4.0,-100.00,WSW,250,2.0,3.0,39,0.00,,,-99.99,,2013-01-02 22:52:00,
2013-01-02 16:02:00,24.0,4.0,-100.00,SW,215,0.0,2.0,40,0.00,,,-99.99,,2013-01-02 23:02:00,
2013-01-02 16:12:00,22.0,2.0,-100.00,SSE,160,0.0,1.0,41,0.00,,,-99.99,,2013-01-02 23:12:00,
2013-01-02 16:22:00,20.0,2.0,-100.00,South,170,0.0,0.0,43,0.00,,,-99.99,,2013-01-02 23:22:00,
2013-01-02 16:32:00,20.0,2.0,-100.00,South,170,0.0,2.0,45,0.00,,,-99.99,,2013-01-02 23:32:00,
2013-01-02 16:42:00,19.0,2.0,-100.00,South,185,0.0,0.0,47,0.00,,,-99.99,,2013-01-02 23:42:00,
2013-01-02 16:52:00,19.0,3.0,-100.00,NW,320,0.0,0.0,48,0.00,,,-99.99,,2013-01-02 23:52:00,
2013-01-02 17:02:00,19.0,4.0,-100.00,WNW,295,0.0,2.0,49,0.00,,,-99.99,,2013-01-03 00:02:00,
2013-01-02 17:12:00,19.0,3.0,-100.00,SE,135,0.0,0.0,50,0.00,,,-99.99,,2013-01-03 00:12:00,
2013-01-02 17:22:00,18.0,3.0,-100.00,SSE,160,0.0,0.0,50,0.00,,,-99.99,,2013-01-03 00:22:00,
2013-01-02 17:36:00,18.0,3.0,-100.00,NW,305,0.0,1.0,50,0.00,,,-99.99,,2013-01-03 00:36:00,
2013-01-02 17:42:00,18.0,3.0,-100.00,SE,140,0.0,1.0,51,0.00,,,-99.99,,2013-01-03 00:42:00,
2013-01-02 17:52:00,16.0,2.0,-100.00,SSE,160,0.0,4.0,52,0.00,,,-99.99,,2013-01-03 00:52:00,
2013-01-02 18:02:00,15.0,2.0,-100.00,SSE,160,0.0,0.0,54,0.00,,,-99.99,,2013-01-03 01:02:00,
2013-01-02 18:11:00,14.0,2.0,-100.00,South,190,0.0,0.0,56,0.00,,,-99.99,,2013-01-03 01:11:00,
2013-01-02 18:22:00,13.0,1.0,-100.00,SE,140,4.0,6.0,57,0.00,,,-99.99,,2013-01-03 01:22:00,
2013-01-02 18:32:00,14.0,2.0,-100.00,SE,145,6.0,10.0,60,0.00,,,-99.99,,2013-01-03 01:32:00,
2013-01-02 18:42:00,14.0,3.0,-100.00,SE,135,9.0,14.0,61,0.00,,,-99.99,,2013-01-03 01:42:00,
2013-01-02 18:52:00,14.0,3.0,-100.00,ESE,115,7.0,12.0,61,0.00,,,-99.99,,2013-01-03 01:52:00,
2013-01-02 19:02:00,14.0,3.0,-100.00,ESE,120,4.0,8.0,61,0.00,,,-99.99,,2013-01-03 02:02:00,
2013-01-02 19:12:00,13.0,2.0,-100.00,SE,145,1.0,7.0,61,0.00,,,-99.99,,2013-01-03 02:12:00,
2013-01-02 19:22:00,13.0,2.0,-100.00,ESE,120,7.0,11.0,61,0.00,,,-99.99,,2013-01-03 02:22:00,
2013-01-02 19:32:00,13.0,2.0,-100.00,SE,125,12.0,16.0,61,0.00,,,-99.99,,2013-01-03 02:32:00,
2013-01-02 19:42:00,13.0,2.0,-100.00,SE,125,12.0,16.0,61,0.00,,,-99.99,,2013-01-03 02:42:00,
2013-01-02 19:52:00,13.0,2.0,-100.00,SE,125,12.0,16.0,61,0.00,,,-99.99,,2013-01-03 02:52:00,
2013-01-02 20:02:00,10.0,0.0,-100.00,North,0,0.0,4.0,60,0.00,,,-99.99,,2013-01-03 03:02:00,
2013-01-02 20:12:00,10.0,-1.0,-100.00,SE,125,6.0,8.0,61,0.00,,,-99.99,,2013-01-03 03:12:00,
2013-01-02 20:22:00,10.0,-1.0,-100.00,SE,130,7.0,12.0,61,0.00,,,-99.99,,2013-01-03 03:22:00,
2013-01-02 20:46:00,9.0,-1.0,-100.00,SE,125,6.0,10.0,62,0.00,,,-99.99,,2013-01-03 03:46:00,
2013-01-02 20:52:00,8.0,-2.0,-100.00,SE,130,5.0,7.0,62,0.00,,,-99.99,,2013-01-03 03:52:00,
2013-01-02 21:02:00,8.0,-2.0,-100.00,SE,135,6.0,9.0,63,0.00,,,-99.99,,2013-01-03 04:02:00,
2013-01-02 21:12:00,6.0,-4.0,-100.00,ESE,115,4.0,8.0,63,0.00,,,-99.99,,2013-01-03 04:12:00,
2013-01-02 21:22:00,5.0,-4.0,-100.00,North,0,1.0,7.0,63,0.00,,,-99.99,,2013-01-03 04:22:00,
2013-01-02 21:32:00,4.0,-6.0,-100.00,SE,130,0.0,1.0,64,0.00,,,-99.99,,2013-01-03 04:32:00,
2013-01-02 21:42:00,4.0,-5.0,-100.00,East,95,0.0,0.0,64,0.00,,,-99.99,,2013-01-03 04:42:00,
2013-01-02 21:52:00,4.0,-5.0,-100.00,SE,135,4.0,5.0,65,0.00,,,-99.99,,2013-01-03 04:52:00,
2013-01-02 22:03:00,5.0,-4.0,-100.00,SE,130,6.0,9.0,66,0.00,,,-99.99,,2013-01-03 05:03:00,
2013-01-02 22:12:00,5.0,-3.0,-100.00,SE,135,6.0,12.0,67,0.00,,,-99.99,,2013-01-03 05:12:00,
2013-01-02 22:22:00,5.0,-3.0,-100.00,SE,130,9.0,11.0,68,0.00,,,-99.99,,2013-01-03 05:22:00,
2013-01-02 22:33:00,5.0,-4.0,-100.00,ESE,120,6.0,11.0,68,0.00,,,-99.99,,2013-01-03 05:33:00,
2013-01-02 22:42:00,4.0,-4.0,-100.00,SE,140,3.0,5.0,68,0.00,,,-99.99,,2013-01-03 05:42:00,
2013-01-02 22:52:00,2.0,-6.0,-100.00,ENE,70,1.0,5.0,68,0.00,,,-99.99,,2013-01-03 05:52:00,
2013-01-02 23:02:00,4.0,-4.0,-100.00,SE,130,7.0,9.0,69,0.00,,,-99.99,,2013-01-03 06:02:00,
2013-01-02 23:12:00,2.0,-5.0,-100.00,SE,130,4.0,10.0,69,0.00,,,-99.99,,2013-01-03 06:12:00,
2013-01-02 23:22:00,4.0,-3.0,-100.00,ESE,120,6.0,11.0,69,0.00,,,-99.99,,2013-01-03 06:22:00,
2013-01-02 23:32:00,4.0,-4.0,-100.00,ESE,120,2.0,8.0,69,0.00,,,-99.99,,2013-01-03 06:32:00,
2013-01-02 23:42:00,2.0,-6.0,-100.00,SE,135,5.0,7.0,69,0.00,,,-99.99,,2013-01-03 06:42:00,
2013-01-02 23:52:00,2.0,-6.0,-100.00,SE,125,7.0,9.0,70,0.00,,,-99.99,,2013-01-03 06:52:00,